sensor_id;sensor_type;location;lat;lon;timestamp;pressure;altitude;pressure_sealevel;temperature;humidity
3250;BME280;1637;42.020;23.992;2023-04-09T00:02:20;92977.19;;;3.53;100.00
3250;BME280;1637;42.020;23.992;2023-04-09T00:04:46;92976.31;;;3.68;100.00
3250;BME280;1637;42.020;23.992;2023-04-09T00:07:13;92982.13;;;3.77;100.00
3250;BME280;1637;42.020;23.992;2023-04-09T00:09:41;92980.25;;;3.78;100.00
3250;BME280;1637;42.020;23.992;2023-04-09T00:12:08;92976.13;;;3.80;100.00
3250;BME280;1637;42.020;23.992;2023-04-09T00:14:35;92982.94;;;3.59;100.00
3250;BME280;1637;42.020;23.992;2023-04-09T00:17:02;92978.22;;;3.49;100.00
3250;BME280;1637;42.020;23.992;2023-04-09T00:19:29;92977.88;;;3.50;100.00
3250;BME280;1637;42.020;23.992;2023-04-09T00:21:56;92982.84;;;3.52;100.00
3250;BME280;1637;42.020;23.992;2023-04-09T00:24:22;92981.72;;;3.33;100.00
3250;BME280;1637;42.020;23.992;2023-04-09T00:26:50;92970.59;;;3.24;100.00
3250;BME280;1637;42.020;23.992;2023-04-09T00:29:17;92979.97;;;3.41;100.00
3250;BME280;1637;42.020;23.992;2023-04-09T00:31:44;92982.47;;;3.53;100.00
3250;BME280;1637;42.020;23.992;2023-04-09T00:34:11;92986.38;;;3.40;100.00
3250;BME280;1637;42.020;23.992;2023-04-09T00:36:38;92972.38;;;3.39;100.00
3250;BME280;1637;42.020;23.992;2023-04-09T00:39:05;92982.41;;;3.50;100.00
3250;BME280;1637;42.020;23.992;2023-04-09T00:41:32;92987.06;;;3.56;100.00
3250;BME280;1637;42.020;23.992;2023-04-09T00:44:00;92985.28;;;3.41;100.00
3250;BME280;1637;42.020;23.992;2023-04-09T00:46:27;92979.84;;;3.34;100.00
3250;BME280;1637;42.020;23.992;2023-04-09T00:48:53;92985.84;;;3.31;100.00
3250;BME280;1637;42.020;23.992;2023-04-09T00:51:20;92985.38;;;3.25;100.00
3250;BME280;1637;42.020;23.992;2023-04-09T00:53:47;92983.66;;;3.36;100.00
3250;BME280;1637;42.020;23.992;2023-04-09T00:56:15;92981.38;;;3.16;100.00
3250;BME280;1637;42.020;23.992;2023-04-09T00:58:43;92979.41;;;2.90;100.00
3250;BME280;1637;42.020;23.992;2023-04-09T01:01:11;92986.59;;;2.93;100.00
3250;BME280;1637;42.020;23.992;2023-04-09T01:03:38;92982.59;;;2.99;100.00
3250;BME280;1637;42.020;23.992;2023-04-09T01:06:09;92981.47;;;3.00;100.00
3250;BME280;1637;42.020;23.992;2023-04-09T01:08:42;92978.66;;;3.12;100.00
3250;BME280;1637;42.020;23.992;2023-04-09T01:11:20;92972.06;;;3.22;100.00
3250;BME280;1637;42.020;23.992;2023-04-09T01:13:54;92976.03;;;3.31;100.00
3250;BME280;1637;42.020;23.992;2023-04-09T01:16:28;92988.69;;;3.41;100.00
3250;BME280;1637;42.020;23.992;2023-04-09T01:19:00;92982.06;;;3.51;100.00
3250;BME280;1637;42.020;23.992;2023-04-09T01:21:29;92988.09;;;3.71;100.00
3250;BME280;1637;42.020;23.992;2023-04-09T01:24:06;92975.81;;;3.21;100.00
3250;BME280;1637;42.020;23.992;2023-04-09T01:26:45;92981.00;;;3.56;100.00
3250;BME280;1637;42.020;23.992;2023-04-09T01:29:21;92975.78;;;3.40;100.00
3250;BME280;1637;42.020;23.992;2023-04-09T01:31:50;92973.16;;;3.40;100.00
3250;BME280;1637;42.020;23.992;2023-04-09T01:34:19;92976.16;;;3.38;100.00
3250;BME280;1637;42.020;23.992;2023-04-09T01:36:52;92972.97;;;3.29;100.00
3250;BME280;1637;42.020;23.992;2023-04-09T01:39:21;92977.94;;;3.12;100.00
3250;BME280;1637;42.020;23.992;2023-04-09T01:41:48;92975.13;;;3.24;100.00
3250;BME280;1637;42.020;23.992;2023-04-09T01:44:16;92973.19;;;3.21;100.00
3250;BME280;1637;42.020;23.992;2023-04-09T01:46:45;92974.56;;;3.15;100.00
3250;BME280;1637;42.020;23.992;2023-04-09T01:49:12;92974.78;;;3.06;100.00
3250;BME280;1637;42.020;23.992;2023-04-09T01:51:40;92960.91;;;2.93;100.00
3250;BME280;1637;42.020;23.992;2023-04-09T01:54:07;92954.53;;;2.94;100.00
3250;BME280;1637;42.020;23.992;2023-04-09T01:56:41;92976.41;;;3.10;100.00
3250;BME280;1637;42.020;23.992;2023-04-09T01:59:08;92975.75;;;2.98;100.00
3250;BME280;1637;42.020;23.992;2023-04-09T02:01:39;92975.19;;;3.27;100.00
3250;BME280;1637;42.020;23.992;2023-04-09T02:04:14;92984.31;;;3.30;100.00
3250;BME280;1637;42.020;23.992;2023-04-09T02:06:45;92977.03;;;3.04;100.00
3250;BME280;1637;42.020;23.992;2023-04-09T02:09:15;92985.13;;;3.34;100.00
3250;BME280;1637;42.020;23.992;2023-04-09T02:11:45;92987.28;;;3.48;100.00
3250;BME280;1637;42.020;23.992;2023-04-09T02:14:13;92944.19;;;3.28;100.00
3250;BME280;1637;42.020;23.992;2023-04-09T02:16:42;92994.47;;;3.47;100.00
3250;BME280;1637;42.020;23.992;2023-04-09T02:19:10;92983.28;;;3.57;100.00
3250;BME280;1637;42.020;23.992;2023-04-09T02:21:37;92984.09;;;3.19;100.00
3250;BME280;1637;42.020;23.992;2023-04-09T02:24:04;92984.16;;;3.42;100.00
3250;BME280;1637;42.020;23.992;2023-04-09T02:26:31;92990.50;;;3.37;100.00
3250;BME280;1637;42.020;23.992;2023-04-09T02:28:58;92990.50;;;3.37;100.00
3250;BME280;1637;42.020;23.992;2023-04-09T02:31:24;92998.31;;;3.50;100.00
3250;BME280;1637;42.020;23.992;2023-04-09T02:33:51;92998.41;;;3.57;100.00
3250;BME280;1637;42.020;23.992;2023-04-09T02:36:19;92995.63;;;3.69;100.00
3250;BME280;1637;42.020;23.992;2023-04-09T02:38:46;92997.50;;;3.68;100.00
3250;BME280;1637;42.020;23.992;2023-04-09T02:41:13;93004.75;;;3.71;100.00
3250;BME280;1637;42.020;23.992;2023-04-09T02:43:40;93003.97;;;3.71;100.00
3250;BME280;1637;42.020;23.992;2023-04-09T02:46:07;93006.31;;;3.34;100.00
3250;BME280;1637;42.020;23.992;2023-04-09T02:48:34;93005.69;;;3.02;100.00
3250;BME280;1637;42.020;23.992;2023-04-09T02:51:03;93000.69;;;2.97;100.00
3250;BME280;1637;42.020;23.992;2023-04-09T02:53:31;92997.06;;;2.86;100.00
3250;BME280;1637;42.020;23.992;2023-04-09T02:55:58;92995.88;;;2.83;100.00
3250;BME280;1637;42.020;23.992;2023-04-09T02:58:25;92995.25;;;2.90;100.00
3250;BME280;1637;42.020;23.992;2023-04-09T03:00:51;92997.06;;;3.05;100.00
3250;BME280;1637;42.020;23.992;2023-04-09T03:03:18;92993.50;;;3.17;100.00
3250;BME280;1637;42.020;23.992;2023-04-09T03:05:46;93000.97;;;3.30;100.00
3250;BME280;1637;42.020;23.992;2023-04-09T03:08:13;92996.78;;;3.49;100.00
3250;BME280;1637;42.020;23.992;2023-04-09T03:10:41;92997.94;;;3.51;100.00
3250;BME280;1637;42.020;23.992;2023-04-09T03:13:08;92997.13;;;3.47;100.00
3250;BME280;1637;42.020;23.992;2023-04-09T03:15:35;92998.75;;;3.55;100.00
3250;BME280;1637;42.020;23.992;2023-04-09T03:18:02;92986.94;;;3.49;100.00
3250;BME280;1637;42.020;23.992;2023-04-09T03:20:29;92997.97;;;3.32;100.00
3250;BME280;1637;42.020;23.992;2023-04-09T03:22:55;92994.16;;;3.29;100.00
3250;BME280;1637;42.020;23.992;2023-04-09T03:25:22;93000.13;;;3.07;100.00
3250;BME280;1637;42.020;23.992;2023-04-09T03:27:50;93002.44;;;3.08;100.00
3250;BME280;1637;42.020;23.992;2023-04-09T03:30:17;92997.00;;;2.82;100.00
3250;BME280;1637;42.020;23.992;2023-04-09T03:32:44;92997.59;;;2.75;100.00
3250;BME280;1637;42.020;23.992;2023-04-09T03:35:11;92999.56;;;2.79;100.00
3250;BME280;1637;42.020;23.992;2023-04-09T03:37:38;92999.78;;;2.70;100.00
3250;BME280;1637;42.020;23.992;2023-04-09T03:40:06;92985.59;;;2.43;100.00
3250;BME280;1637;42.020;23.992;2023-04-09T03:42:32;92997.94;;;2.74;100.00
3250;BME280;1637;42.020;23.992;2023-04-09T03:45:04;92993.41;;;2.74;100.00
3250;BME280;1637;42.020;23.992;2023-04-09T03:47:31;92997.00;;;2.82;100.00
3250;BME280;1637;42.020;23.992;2023-04-09T03:49:58;93000.19;;;2.91;100.00
3250;BME280;1637;42.020;23.992;2023-04-09T03:52:25;92991.53;;;2.75;100.00
3250;BME280;1637;42.020;23.992;2023-04-09T03:54:52;93004.66;;;3.06;100.00
3250;BME280;1637;42.020;23.992;2023-04-09T03:57:19;93001.88;;;3.19;100.00
3250;BME280;1637;42.020;23.992;2023-04-09T03:59:46;93005.81;;;3.48;100.00
3250;BME280;1637;42.020;23.992;2023-04-09T04:02:14;93013.66;;;3.63;100.00
3250;BME280;1637;42.020;23.992;2023-04-09T04:04:40;93018.41;;;3.54;100.00
3250;BME280;1637;42.020;23.992;2023-04-09T04:07:07;93022.34;;;3.41;100.00
3250;BME280;1637;42.020;23.992;2023-04-09T04:09:34;93019.44;;;3.07;100.00
3250;BME280;1637;42.020;23.992;2023-04-09T04:12:01;93019.44;;;3.07;100.00
3250;BME280;1637;42.020;23.992;2023-04-09T04:14:28;93010.44;;;3.12;100.00
3250;BME280;1637;42.020;23.992;2023-04-09T04:16:55;93010.56;;;3.19;100.00
3250;BME280;1637;42.020;23.992;2023-04-09T04:19:23;93011.75;;;3.41;100.00
3250;BME280;1637;42.020;23.992;2023-04-09T04:21:50;93011.81;;;3.44;100.00
3250;BME280;1637;42.020;23.992;2023-04-09T04:24:17;93009.13;;;3.22;100.00
3250;BME280;1637;42.020;23.992;2023-04-09T04:26:44;93027.16;;;3.16;100.00
3250;BME280;1637;42.020;23.992;2023-04-09T04:29:10;93025.75;;;3.22;100.00
3250;BME280;1637;42.020;23.992;2023-04-09T04:31:37;93016.00;;;3.26;100.00
3250;BME280;1637;42.020;23.992;2023-04-09T04:34:04;93019.97;;;2.97;100.00
3250;BME280;1637;42.020;23.992;2023-04-09T04:36:32;93022.06;;;3.07;100.00
3250;BME280;1637;42.020;23.992;2023-04-09T04:38:59;93017.81;;;3.03;100.00
3250;BME280;1637;42.020;23.992;2023-04-09T04:41:26;93009.19;;;3.06;100.00
3250;BME280;1637;42.020;23.992;2023-04-09T04:43:53;93014.91;;;3.08;100.00
3250;BME280;1637;42.020;23.992;2023-04-09T04:46:21;93018.78;;;3.14;100.00
3250;BME280;1637;42.020;23.992;2023-04-09T04:48:48;93017.31;;;3.17;100.00
3250;BME280;1637;42.020;23.992;2023-04-09T04:51:15;93021.66;;;3.25;100.00
3250;BME280;1637;42.020;23.992;2023-04-09T04:53:43;93008.06;;;3.26;100.00
3250;BME280;1637;42.020;23.992;2023-04-09T04:56:12;93017.75;;;3.19;100.00
3250;BME280;1637;42.020;23.992;2023-04-09T04:58:39;93010.44;;;3.31;100.00
3250;BME280;1637;42.020;23.992;2023-04-09T05:01:06;93018.16;;;3.40;100.00
3250;BME280;1637;42.020;23.992;2023-04-09T05:03:32;93019.75;;;3.44;100.00
3250;BME280;1637;42.020;23.992;2023-04-09T05:05:59;93022.47;;;3.48;100.00
3250;BME280;1637;42.020;23.992;2023-04-09T05:08:26;93018.06;;;3.56;100.00
3250;BME280;1637;42.020;23.992;2023-04-09T05:10:54;93027.72;;;3.44;100.00
3250;BME280;1637;42.020;23.992;2023-04-09T05:13:21;93011.41;;;3.42;100.00
3250;BME280;1637;42.020;23.992;2023-04-09T05:15:49;93025.03;;;3.64;100.00
3250;BME280;1637;42.020;23.992;2023-04-09T05:18:16;93014.63;;;3.74;100.00
3250;BME280;1637;42.020;23.992;2023-04-09T05:20:42;93021.44;;;3.75;100.00
3250;BME280;1637;42.020;23.992;2023-04-09T05:23:09;93027.56;;;3.79;100.00
3250;BME280;1637;42.020;23.992;2023-04-09T05:25:37;93023.09;;;3.84;100.00
3250;BME280;1637;42.020;23.992;2023-04-09T05:28:05;93021.47;;;3.98;100.00
3250;BME280;1637;42.020;23.992;2023-04-09T05:30:32;93020.13;;;4.08;100.00
3250;BME280;1637;42.020;23.992;2023-04-09T05:32:58;93011.28;;;4.00;100.00
3250;BME280;1637;42.020;23.992;2023-04-09T05:35:25;93018.59;;;4.07;100.00
3250;BME280;1637;42.020;23.992;2023-04-09T05:37:52;93018.22;;;4.31;100.00
3250;BME280;1637;42.020;23.992;2023-04-09T05:40:19;93027.81;;;4.39;100.00
3250;BME280;1637;42.020;23.992;2023-04-09T05:42:46;93035.88;;;4.46;100.00
3250;BME280;1637;42.020;23.992;2023-04-09T05:45:14;93030.78;;;4.61;100.00
3250;BME280;1637;42.020;23.992;2023-04-09T05:47:41;93027.53;;;4.71;100.00
3250;BME280;1637;42.020;23.992;2023-04-09T05:50:09;93022.81;;;4.87;100.00
3250;BME280;1637;42.020;23.992;2023-04-09T05:52:36;93030.69;;;4.54;100.00
3250;BME280;1637;42.020;23.992;2023-04-09T05:55:03;93024.66;;;4.83;100.00
3250;BME280;1637;42.020;23.992;2023-04-09T05:57:30;93027.78;;;5.52;100.00
3250;BME280;1637;42.020;23.992;2023-04-09T05:59:57;93034.66;;;6.31;100.00
3250;BME280;1637;42.020;23.992;2023-04-09T06:02:26;93031.59;;;6.29;100.00
3250;BME280;1637;42.020;23.992;2023-04-09T06:04:52;93046.47;;;6.84;100.00
3250;BME280;1637;42.020;23.992;2023-04-09T06:07:20;93022.19;;;6.97;97.17
3250;BME280;1637;42.020;23.992;2023-04-09T06:09:46;93043.28;;;7.30;95.46
3250;BME280;1637;42.020;23.992;2023-04-09T06:12:13;93043.72;;;7.39;92.39
3250;BME280;1637;42.020;23.992;2023-04-09T06:14:40;93048.34;;;6.80;88.65
3250;BME280;1637;42.020;23.992;2023-04-09T06:17:07;93039.44;;;6.11;91.83
3250;BME280;1637;42.020;23.992;2023-04-09T06:19:35;93041.66;;;5.08;98.59
3250;BME280;1637;42.020;23.992;2023-04-09T06:22:02;93041.53;;;4.98;100.00
3250;BME280;1637;42.020;23.992;2023-04-09T06:24:30;93040.66;;;5.20;100.00
3250;BME280;1637;42.020;23.992;2023-04-09T06:26:57;93040.25;;;5.14;100.00
3250;BME280;1637;42.020;23.992;2023-04-09T06:29:23;93038.38;;;4.89;100.00
3250;BME280;1637;42.020;23.992;2023-04-09T06:31:50;93039.31;;;5.03;100.00
3250;BME280;1637;42.020;23.992;2023-04-09T06:34:17;93038.53;;;5.29;100.00
3250;BME280;1637;42.020;23.992;2023-04-09T06:36:46;93039.22;;;5.56;100.00
3250;BME280;1637;42.020;23.992;2023-04-09T06:39:12;93043.56;;;5.71;100.00
3250;BME280;1637;42.020;23.992;2023-04-09T06:41:39;93037.94;;;5.76;100.00
3250;BME280;1637;42.020;23.992;2023-04-09T06:44:06;93047.47;;;5.81;100.00
3250;BME280;1637;42.020;23.992;2023-04-09T06:46:33;93049.09;;;5.89;100.00
3250;BME280;1637;42.020;23.992;2023-04-09T06:49:00;93041.13;;;5.89;100.00
3250;BME280;1637;42.020;23.992;2023-04-09T06:51:26;93049.91;;;5.63;100.00
3250;BME280;1637;42.020;23.992;2023-04-09T06:53:55;93045.47;;;5.41;100.00
3250;BME280;1637;42.020;23.992;2023-04-09T06:56:21;93044.38;;;5.12;100.00
3250;BME280;1637;42.020;23.992;2023-04-09T06:58:48;93053.75;;;5.32;100.00
3250;BME280;1637;42.020;23.992;2023-04-09T07:01:15;93044.03;;;5.47;100.00
3250;BME280;1637;42.020;23.992;2023-04-09T07:03:42;93051.44;;;5.64;100.00
3250;BME280;1637;42.020;23.992;2023-04-09T07:06:10;93050.38;;;5.35;100.00
3250;BME280;1637;42.020;23.992;2023-04-09T07:08:36;93048.91;;;5.75;100.00
3250;BME280;1637;42.020;23.992;2023-04-09T07:11:05;93047.97;;;5.90;100.00
3250;BME280;1637;42.020;23.992;2023-04-09T07:13:31;93049.97;;;6.00;100.00
3250;BME280;1637;42.020;23.992;2023-04-09T07:15:58;93054.19;;;6.49;100.00
3250;BME280;1637;42.020;23.992;2023-04-09T07:18:25;93053.19;;;6.20;100.00
3250;BME280;1637;42.020;23.992;2023-04-09T07:20:52;93063.41;;;6.59;100.00
3250;BME280;1637;42.020;23.992;2023-04-09T07:23:19;93065.50;;;6.86;100.00
3250;BME280;1637;42.020;23.992;2023-04-09T07:25:47;93067.09;;;6.98;100.00
3250;BME280;1637;42.020;23.992;2023-04-09T07:28:15;93059.84;;;7.75;100.00
3250;BME280;1637;42.020;23.992;2023-04-09T07:30:42;93065.53;;;7.63;100.00
3250;BME280;1637;42.020;23.992;2023-04-09T07:33:10;93069.78;;;7.81;100.00
3250;BME280;1637;42.020;23.992;2023-04-09T07:35:37;93065.69;;;8.05;98.91
3250;BME280;1637;42.020;23.992;2023-04-09T07:38:04;93060.34;;;8.16;99.43
3250;BME280;1637;42.020;23.992;2023-04-09T07:40:33;93057.00;;;8.86;93.86
3250;BME280;1637;42.020;23.992;2023-04-09T07:43:01;93056.50;;;10.39;86.86
3250;BME280;1637;42.020;23.992;2023-04-09T07:45:29;93059.41;;;11.03;80.76
3250;BME280;1637;42.020;23.992;2023-04-09T07:47:56;93060.91;;;10.60;81.17
3250;BME280;1637;42.020;23.992;2023-04-09T07:50:23;93068.31;;;10.42;80.79
3250;BME280;1637;42.020;23.992;2023-04-09T07:52:49;93064.53;;;9.52;82.52
3250;BME280;1637;42.020;23.992;2023-04-09T07:55:16;93059.41;;;9.93;82.48
3250;BME280;1637;42.020;23.992;2023-04-09T07:57:44;93056.00;;;9.78;81.00
3250;BME280;1637;42.020;23.992;2023-04-09T08:00:13;93065.84;;;9.99;80.03
3250;BME280;1637;42.020;23.992;2023-04-09T08:02:41;93062.31;;;10.23;78.03
3250;BME280;1637;42.020;23.992;2023-04-09T08:05:08;93055.97;;;9.85;80.65
3250;BME280;1637;42.020;23.992;2023-04-09T08:07:35;93066.53;;;10.17;79.54
3250;BME280;1637;42.020;23.992;2023-04-09T08:10:03;93057.94;;;10.47;77.67
3250;BME280;1637;42.020;23.992;2023-04-09T08:12:30;93054.53;;;10.43;75.73
3250;BME280;1637;42.020;23.992;2023-04-09T08:14:56;93048.81;;;10.41;76.30
3250;BME280;1637;42.020;23.992;2023-04-09T08:17:23;93051.28;;;11.18;72.28
3250;BME280;1637;42.020;23.992;2023-04-09T08:19:53;93060.69;;;12.04;69.96
3250;BME280;1637;42.020;23.992;2023-04-09T08:22:19;93043.34;;;13.13;66.09
3250;BME280;1637;42.020;23.992;2023-04-09T08:24:50;93057.13;;;11.43;69.60
3250;BME280;1637;42.020;23.992;2023-04-09T08:27:17;93046.97;;;10.31;75.16
3250;BME280;1637;42.020;23.992;2023-04-09T08:29:44;93036.97;;;9.62;80.98
3250;BME280;1637;42.020;23.992;2023-04-09T08:32:10;93047.00;;;9.26;82.66
3250;BME280;1637;42.020;23.992;2023-04-09T08:34:37;93040.19;;;9.07;83.74
3250;BME280;1637;42.020;23.992;2023-04-09T08:37:05;93039.38;;;9.24;85.31
3250;BME280;1637;42.020;23.992;2023-04-09T08:39:32;93036.63;;;9.49;82.60
3250;BME280;1637;42.020;23.992;2023-04-09T08:42:01;93033.97;;;9.42;83.81
3250;BME280;1637;42.020;23.992;2023-04-09T08:44:28;93027.09;;;9.52;82.78
3250;BME280;1637;42.020;23.992;2023-04-09T08:46:55;93039.00;;;9.19;83.09
3250;BME280;1637;42.020;23.992;2023-04-09T08:49:22;93032.59;;;8.91;86.27
3250;BME280;1637;42.020;23.992;2023-04-09T08:51:49;93030.47;;;9.67;83.05
3250;BME280;1637;42.020;23.992;2023-04-09T08:54:17;93031.56;;;9.76;82.45
3250;BME280;1637;42.020;23.992;2023-04-09T08:56:44;93034.44;;;9.16;83.75
3250;BME280;1637;42.020;23.992;2023-04-09T08:59:14;93024.53;;;8.99;85.19
3250;BME280;1637;42.020;23.992;2023-04-09T09:01:41;93022.53;;;9.42;83.40
3250;BME280;1637;42.020;23.992;2023-04-09T09:04:08;92991.78;;;8.70;85.28
3250;BME280;1637;42.020;23.992;2023-04-09T09:06:37;93014.28;;;8.93;84.75
3250;BME280;1637;42.020;23.992;2023-04-09T09:09:06;93010.44;;;8.91;86.42
3250;BME280;1637;42.020;23.992;2023-04-09T09:11:35;93010.59;;;9.60;83.27
3250;BME280;1637;42.020;23.992;2023-04-09T09:14:04;93018.16;;;10.49;76.64
3250;BME280;1637;42.020;23.992;2023-04-09T09:16:32;93023.13;;;11.36;73.38
3250;BME280;1637;42.020;23.992;2023-04-09T09:19:00;93010.13;;;11.65;71.66
3250;BME280;1637;42.020;23.992;2023-04-09T09:21:28;93018.41;;;12.39;71.34
3250;BME280;1637;42.020;23.992;2023-04-09T09:23:55;93011.19;;;12.05;67.87
3250;BME280;1637;42.020;23.992;2023-04-09T09:26:24;93010.81;;;11.73;70.11
3250;BME280;1637;42.020;23.992;2023-04-09T09:28:53;93007.06;;;11.33;72.76
3250;BME280;1637;42.020;23.992;2023-04-09T09:31:21;93017.34;;;11.38;70.83
3250;BME280;1637;42.020;23.992;2023-04-09T09:33:49;93014.09;;;11.54;70.48
3250;BME280;1637;42.020;23.992;2023-04-09T09:36:29;93012.78;;;11.69;70.09
3250;BME280;1637;42.020;23.992;2023-04-09T09:38:57;93011.28;;;11.30;71.22
3250;BME280;1637;42.020;23.992;2023-04-09T09:41:27;92999.16;;;10.33;74.22
3250;BME280;1637;42.020;23.992;2023-04-09T09:43:56;93005.59;;;10.87;74.64
3250;BME280;1637;42.020;23.992;2023-04-09T09:46:23;92995.66;;;10.84;74.08
3250;BME280;1637;42.020;23.992;2023-04-09T09:48:50;92998.91;;;11.06;73.24
3250;BME280;1637;42.020;23.992;2023-04-09T09:51:18;92997.28;;;11.16;72.48
3250;BME280;1637;42.020;23.992;2023-04-09T09:53:50;92996.41;;;10.88;73.38
3250;BME280;1637;42.020;23.992;2023-04-09T09:56:21;92992.56;;;10.45;75.67
3250;BME280;1637;42.020;23.992;2023-04-09T09:58:53;92997.84;;;11.00;75.35
3250;BME280;1637;42.020;23.992;2023-04-09T10:01:25;92987.81;;;10.63;77.08
3250;BME280;1637;42.020;23.992;2023-04-09T10:03:55;92993.16;;;10.63;76.32
3250;BME280;1637;42.020;23.992;2023-04-09T10:06:24;92992.50;;;10.96;74.46
3250;BME280;1637;42.020;23.992;2023-04-09T10:08:55;92983.13;;;10.74;75.53
3250;BME280;1637;42.020;23.992;2023-04-09T10:11:22;92982.56;;;11.31;73.83
3250;BME280;1637;42.020;23.992;2023-04-09T10:13:56;92973.00;;;11.30;74.03
3250;BME280;1637;42.020;23.992;2023-04-09T10:16:25;92974.09;;;11.36;72.63
3250;BME280;1637;42.020;23.992;2023-04-09T10:18:52;92980.00;;;11.54;71.97
3250;BME280;1637;42.020;23.992;2023-04-09T10:21:29;92979.75;;;11.76;72.07
3250;BME280;1637;42.020;23.992;2023-04-09T10:23:58;92980.28;;;11.63;71.53
3250;BME280;1637;42.020;23.992;2023-04-09T10:26:32;92982.72;;;11.51;69.74
3250;BME280;1637;42.020;23.992;2023-04-09T10:29:06;92976.06;;;11.28;72.13
3250;BME280;1637;42.020;23.992;2023-04-09T10:31:50;92970.25;;;11.37;71.99
3250;BME280;1637;42.020;23.992;2023-04-09T10:34:19;92978.84;;;11.55;72.25
3250;BME280;1637;42.020;23.992;2023-04-09T10:36:50;92966.91;;;11.26;71.62
3250;BME280;1637;42.020;23.992;2023-04-09T10:39:18;92974.69;;;11.17;71.88
3250;BME280;1637;42.020;23.992;2023-04-09T10:41:47;92954.03;;;11.14;70.39
3250;BME280;1637;42.020;23.992;2023-04-09T10:44:21;92950.19;;;10.77;72.33
3250;BME280;1637;42.020;23.992;2023-04-09T10:46:52;92966.69;;;10.72;71.70
3250;BME280;1637;42.020;23.992;2023-04-09T10:49:20;92965.38;;;10.91;71.10
3250;BME280;1637;42.020;23.992;2023-04-09T10:51:51;92965.25;;;11.01;70.96
3250;BME280;1637;42.020;23.992;2023-04-09T10:54:37;92955.13;;;11.20;71.59
3250;BME280;1637;42.020;23.992;2023-04-09T10:57:12;92957.91;;;11.09;71.55
3250;BME280;1637;42.020;23.992;2023-04-09T10:59:40;92997.91;;;10.93;70.25
3250;BME280;1637;42.020;23.992;2023-04-09T11:05:02;92957.53;;;11.07;70.24
3250;BME280;1637;42.020;23.992;2023-04-09T11:07:34;92958.28;;;11.11;69.39
3250;BME280;1637;42.020;23.992;2023-04-09T11:10:05;92952.50;;;11.13;69.96
3250;BME280;1637;42.020;23.992;2023-04-09T11:12:32;92949.16;;;11.01;69.58
3250;BME280;1637;42.020;23.992;2023-04-09T11:14:59;92945.81;;;10.94;69.82
3250;BME280;1637;42.020;23.992;2023-04-09T11:17:27;92948.97;;;10.85;69.07
3250;BME280;1637;42.020;23.992;2023-04-09T11:19:54;92952.66;;;10.98;68.64
3250;BME280;1637;42.020;23.992;2023-04-09T11:22:21;92945.97;;;10.80;67.54
3250;BME280;1637;42.020;23.992;2023-04-09T11:24:48;92947.28;;;10.61;68.23
3250;BME280;1637;42.020;23.992;2023-04-09T11:27:15;92948.31;;;10.74;68.95
3250;BME280;1637;42.020;23.992;2023-04-09T11:29:44;92947.72;;;10.56;67.55
3250;BME280;1637;42.020;23.992;2023-04-09T11:32:11;92940.75;;;10.62;68.56
3250;BME280;1637;42.020;23.992;2023-04-09T11:34:39;92937.81;;;10.49;67.52
3250;BME280;1637;42.020;23.992;2023-04-09T11:37:06;92948.13;;;10.54;68.40
3250;BME280;1637;42.020;23.992;2023-04-09T11:39:42;92936.22;;;10.59;69.07
3250;BME280;1637;42.020;23.992;2023-04-09T11:42:12;92930.75;;;10.70;67.10
3250;BME280;1637;42.020;23.992;2023-04-09T11:44:39;92934.75;;;10.51;68.36
3250;BME280;1637;42.020;23.992;2023-04-09T11:47:07;92935.53;;;10.48;66.10
3250;BME280;1637;42.020;23.992;2023-04-09T11:49:34;92937.47;;;10.44;66.27
3250;BME280;1637;42.020;23.992;2023-04-09T11:52:03;92932.34;;;10.60;64.74
3250;BME280;1637;42.020;23.992;2023-04-09T11:54:30;92937.41;;;10.54;66.04
3250;BME280;1637;42.020;23.992;2023-04-09T11:56:57;92937.41;;;10.54;65.35
3250;BME280;1637;42.020;23.992;2023-04-09T11:59:24;92922.53;;;10.46;64.56
3250;BME280;1637;42.020;23.992;2023-04-09T12:01:51;92927.34;;;10.65;64.59
3250;BME280;1637;42.020;23.992;2023-04-09T12:04:19;92935.41;;;10.62;62.94
3250;BME280;1637;42.020;23.992;2023-04-09T12:06:46;92905.47;;;10.33;63.44
3250;BME280;1637;42.020;23.992;2023-04-09T12:09:15;92928.03;;;10.32;63.11
3250;BME280;1637;42.020;23.992;2023-04-09T12:11:43;92928.97;;;10.56;63.26
3250;BME280;1637;42.020;23.992;2023-04-09T12:14:12;92930.50;;;10.57;62.85
3250;BME280;1637;42.020;23.992;2023-04-09T12:16:39;92924.38;;;10.56;63.49
3250;BME280;1637;42.020;23.992;2023-04-09T12:19:08;92928.63;;;10.50;62.28
3250;BME280;1637;42.020;23.992;2023-04-09T12:21:46;92909.97;;;10.40;62.55
3250;BME280;1637;42.020;23.992;2023-04-09T12:24:15;92930.50;;;10.57;63.46
3250;BME280;1637;42.020;23.992;2023-04-09T12:26:41;92927.94;;;10.43;64.92
3250;BME280;1637;42.020;23.992;2023-04-09T12:29:08;92917.22;;;10.43;64.98
3250;BME280;1637;42.020;23.992;2023-04-09T12:31:35;92920.16;;;10.59;63.62
3250;BME280;1637;42.020;23.992;2023-04-09T12:34:02;92920.28;;;10.41;64.01
3250;BME280;1637;42.020;23.992;2023-04-09T12:36:29;92922.66;;;10.36;65.71
3250;BME280;1637;42.020;23.992;2023-04-09T12:38:56;92924.25;;;10.67;64.58
3250;BME280;1637;42.020;23.992;2023-04-09T12:41:24;92916.84;;;10.82;63.88
3250;BME280;1637;42.020;23.992;2023-04-09T12:43:51;92917.59;;;10.82;63.84
3250;BME280;1637;42.020;23.992;2023-04-09T12:46:18;92907.06;;;10.64;63.89
3250;BME280;1637;42.020;23.992;2023-04-09T12:48:45;92915.78;;;10.76;63.81
3250;BME280;1637;42.020;23.992;2023-04-09T12:51:12;92914.69;;;10.70;63.69
3250;BME280;1637;42.020;23.992;2023-04-09T12:53:39;92923.63;;;10.56;63.63
3250;BME280;1637;42.020;23.992;2023-04-09T12:56:07;92928.25;;;10.52;63.67
3250;BME280;1637;42.020;23.992;2023-04-09T12:58:35;92929.41;;;10.47;64.60
3250;BME280;1637;42.020;23.992;2023-04-09T13:01:02;92921.50;;;10.37;64.58
3250;BME280;1637;42.020;23.992;2023-04-09T13:03:29;92918.19;;;10.18;65.37
3250;BME280;1637;42.020;23.992;2023-04-09T13:05:56;92915.09;;;10.23;66.15
3250;BME280;1637;42.020;23.992;2023-04-09T13:08:23;92919.47;;;10.48;65.45
3250;BME280;1637;42.020;23.992;2023-04-09T13:10:50;92913.47;;;10.37;65.61
3250;BME280;1637;42.020;23.992;2023-04-09T13:13:16;92922.66;;;10.36;65.80
3250;BME280;1637;42.020;23.992;2023-04-09T13:15:45;92917.59;;;10.41;65.27
3250;BME280;1637;42.020;23.992;2023-04-09T13:18:12;92896.84;;;10.04;66.52
3250;BME280;1637;42.020;23.992;2023-04-09T13:20:39;92910.59;;;10.06;67.60